Time;durP1;ratioP1;P1;durP2;ratioP2;P2;SDS_P1;SDS_P2;PMS_P1;PMS_P2;Temp;Humidity;BMP_temperature;BMP_pressure;BME280_temperature;BME280_humidity;BME280_pressure;Samples;Min_cycle;Max_cycle;Signal;HPM_P1;HPM_P2
2021/03/26 00:00:20;;;;;;;8.48;3.88;;;6.60;70.70;;;;;;5053789;28;20024;-74
2021/03/26 00:02:46;;;;;;;8.43;4.15;;;6.40;71.30;;;;;;5072038;28;20021;-74
2021/03/26 00:05:15;;;;;;;8.52;4.97;;;6.40;71.20;;;;;;5053806;28;20111;-74
2021/03/26 00:07:41;;;;;;;9.80;3.95;;;6.50;71.30;;;;;;5071987;28;20112;-74
2021/03/26 00:10:10;;;;;;;9.63;4.18;;;6.40;71.80;;;;;;5071713;28;20067;-74
2021/03/26 00:12:35;;;;;;;6.80;3.78;;;6.30;72.20;;;;;;5071767;28;20029;-74
2021/03/26 00:15:02;;;;;;;7.70;4.15;;;6.20;72.60;;;;;;5071777;28;20028;-74
2021/03/26 00:17:28;;;;;;;6.15;3.92;;;6.20;73.00;;;;;;5071466;28;20036;-74
2021/03/26 00:19:54;;;;;;;11.80;3.67;;;6.20;73.00;;;;;;5071708;28;20020;-74
2021/03/26 00:22:19;;;;;;;6.43;3.90;;;6.20;73.00;;;;;;5071582;28;20024;-74
2021/03/26 00:24:45;;;;;;;15.45;3.13;;;6.10;72.80;;;;;;5071734;28;20021;-74
2021/03/26 00:27:11;;;;;;;11.23;3.78;;;6.20;72.20;;;;;;5071667;28;20355;-74
2021/03/26 00:29:36;;;;;;;11.30;3.17;;;6.40;71.70;;;;;;5053651;28;20474;-74
2021/03/26 00:32:02;;;;;;;6.18;3.65;;;6.40;71.80;;;;;;5071714;28;20025;-74
2021/03/26 00:34:29;;;;;;;5.63;3.22;;;6.60;71.30;;;;;;5053717;28;20036;-74
2021/03/26 00:36:54;;;;;;;7.07;3.85;;;6.60;70.60;;;;;;5071626;28;20043;-75
2021/03/26 00:39:21;;;;;;;7.25;3.38;;;6.50;70.80;;;;;;5071432;28;20025;-74
2021/03/26 00:41:46;;;;;;;10.30;3.70;;;6.70;70.80;;;;;;5053531;28;20460;-74
2021/03/26 00:44:12;;;;;;;6.82;3.35;;;6.80;70.30;;;;;;5071573;28;20063;-74
2021/03/26 00:46:40;;;;;;;4.97;3.40;;;6.70;70.20;;;;;;5071583;28;20100;-74
2021/03/26 00:49:06;;;;;;;5.55;3.85;;;6.60;70.50;;;;;;5074166;28;20472;-74
2021/03/26 00:51:33;;;;;;;5.78;3.50;;;6.40;70.60;;;;;;5057407;28;20077;-75
2021/03/26 00:53:59;;;;;;;5.80;2.95;;;6.30;71.10;;;;;;5040591;28;20031;-75
2021/03/26 00:56:25;;;;;;;5.57;2.63;;;6.40;71.40;;;;;;5075696;28;20104;-74
2021/03/26 00:58:51;;;;;;;8.88;3.28;;;6.40;71.40;;;;;;5057296;28;20235;-74
2021/03/26 01:01:17;;;;;;;4.57;3.22;;;6.30;71.40;;;;;;5075218;28;20063;-74
2021/03/26 01:03:43;;;;;;;7.05;3.58;;;6.30;71.50;;;;;;5057380;28;20028;-74
2021/03/26 01:06:09;;;;;;;6.18;3.30;;;6.20;72.00;;;;;;5075528;28;20551;-75
2021/03/26 01:08:36;;;;;;;9.07;4.15;;;6.20;72.00;;;;;;5056980;28;20024;-75
2021/03/26 01:11:07;;;;;;;5.57;3.35;;;6.00;72.40;;;;;;5075223;28;20028;-74
2021/03/26 01:13:33;;;;;;;6.38;3.40;;;5.70;72.60;;;;;;5057087;28;20032;-74
2021/03/26 01:15:59;;;;;;;6.97;3.13;;;5.60;73.30;;;;;;5057001;28;20032;-74
2021/03/26 01:18:31;;;;;;;11.77;3.42;;;5.70;73.30;;;;;;5074717;28;20414;-75
2021/03/26 01:20:58;;;;;;;4.80;3.08;;;5.80;73.40;;;;;;5074669;28;20024;-75
2021/03/26 01:23:26;;;;;;;4.78;3.00;;;5.90;72.90;;;;;;5074763;28;20040;-74
2021/03/26 01:25:52;;;;;;;6.95;3.92;;;5.90;72.70;;;;;;5074947;28;20029;-74
2021/03/26 01:28:21;;;;;;;5.45;3.42;;;6.10;72.50;;;;;;5056565;28;20387;-74
2021/03/26 01:30:48;;;;;;;7.57;3.40;;;5.90;72.20;;;;;;5074711;28;20032;-75
2021/03/26 01:33:14;;;;;;;4.50;2.95;;;5.90;72.90;;;;;;5074449;28;20024;-74
2021/03/26 01:35:41;;;;;;;5.43;3.42;;;5.70;73.70;;;;;;5074567;28;20059;-74
2021/03/26 01:38:07;;;;;;;9.60;3.22;;;5.50;74.50;;;;;;5074836;28;20027;-75
2021/03/26 01:40:46;;;;;;;5.82;3.35;;;5.70;74.60;;;;;;5074388;28;20024;-74
2021/03/26 01:43:20;;;;;;;9.00;3.45;;;5.70;74.60;;;;;;5056536;28;20484;-74
2021/03/26 01:45:47;;;;;;;7.68;3.83;;;5.80;74.50;;;;;;5056700;28;20105;-74
2021/03/26 01:48:22;;;;;;;7.80;3.55;;;5.80;74.40;;;;;;5039637;28;20078;-74
2021/03/26 01:50:48;;;;;;;9.68;4.18;;;5.80;74.70;;;;;;5039786;28;20025;-74
2021/03/26 01:53:13;;;;;;;12.25;4.57;;;5.90;74.50;;;;;;5056314;28;20364;-74
2021/03/26 01:55:43;;;;;;;12.50;4.60;;;6.00;73.40;;;;;;5056157;28;20074;-74
2021/03/26 01:58:11;;;;;;;11.02;4.43;;;6.10;73.00;;;;;;5074084;28;20013;-74
2021/03/26 02:00:49;;;;;;;7.97;3.55;;;6.10;72.90;;;;;;5073229;28;20020;-74
2021/03/26 02:03:39;;;;;;;6.63;3.35;;;5.90;73.50;;;;;;5074054;28;20029;-74
2021/03/26 02:06:48;;;;;;;5.18;3.70;;;5.90;73.40;;;;;;5056019;28;20387;-74
2021/03/26 02:09:27;;;;;;;11.07;3.38;;;5.60;73.90;;;;;;5038775;28;20127;-74
2021/03/26 02:12:26;;;;;;;7.90;3.88;;;5.20;75.50;;;;;;5073953;28;20032;-74
2021/03/26 02:14:56;;;;;;;10.25;3.40;;;5.10;76.90;;;;;;5073869;28;20024;-74
2021/03/26 02:17:26;;;;;;;4.93;3.17;;;5.00;76.30;;;;;;5073654;28;20028;-74
2021/03/26 02:19:58;;;;;;;4.75;3.28;;;5.10;76.60;;;;;;5073582;28;20028;-75
2021/03/26 02:22:28;;;;;;;4.75;3.30;;;5.20;76.10;;;;;;5073523;28;20028;-74
2021/03/26 02:24:54;;;;;;;12.27;3.78;;;5.20;76.30;;;;;;5055744;28;20430;-74
2021/03/26 02:27:34;;;;;;;9.15;4.28;;;5.00;76.80;;;;;;5039030;28;20078;-74
2021/03/26 02:30:09;;;;;;;10.77;3.97;;;5.00;77.10;;;;;;5073469;28;20021;-74
2021/03/26 02:32:38;;;;;;;10.13;3.53;;;4.90;77.10;;;;;;5073272;28;20021;-74
2021/03/26 02:35:25;;;;;;;7.55;3.38;;;4.90;77.20;;;;;;5073409;28;20488;-74
2021/03/26 02:38:03;;;;;;;9.50;4.10;;;4.80;77.80;;;;;;5072969;28;20033;-74
2021/03/26 02:40:38;;;;;;;8.55;3.58;;;4.80;77.90;;;;;;5073168;28;20021;-74
2021/03/26 02:43:41;;;;;;;9.52;3.80;;;4.70;78.40;;;;;;5073317;28;20107;-74
2021/03/26 02:46:41;;;;;;;6.85;3.40;;;4.60;78.90;;;;;;5073149;28;20146;-74
2021/03/26 02:49:41;;;;;;;7.18;3.75;;;4.50;79.50;;;;;;5073065;28;20514;-74
2021/03/26 02:52:27;;;;;;;8.18;3.97;;;4.60;79.40;;;;;;5038589;28;20387;-74
2021/03/26 02:55:10;;;;;;;8.70;3.22;;;4.90;78.80;;;;;;5073080;28;20498;-74
2021/03/26 02:57:44;;;;;;;14.52;4.80;;;4.80;78.20;;;;;;5072941;28;20078;-74
2021/03/26 03:00:31;;;;;;;10.07;4.10;;;4.80;78.20;;;;;;5054965;28;20476;-74
2021/03/26 03:02:59;;;;;;;8.15;4.70;;;4.70;78.70;;;;;;5055044;28;20444;-74
2021/03/26 03:05:42;;;;;;;12.18;5.25;;;4.70;78.90;;;;;;5072809;28;20384;-74
2021/03/26 03:08:18;;;;;;;7.10;4.18;;;4.90;78.80;;;;;;5072784;28;20506;-74
2021/03/26 03:10:48;;;;;;;6.80;4.07;;;5.00;77.90;;;;;;5054773;28;20029;-74
2021/03/26 03:13:38;;;;;;;11.48;4.75;;;4.90;78.20;;;;;;5072550;28;20503;-74
2021/03/26 03:16:16;;;;;;;6.22;3.72;;;4.70;78.50;;;;;;5054726;28;20028;-74
2021/03/26 03:18:47;;;;;;;7.20;3.53;;;4.50;79.10;;;;;;5072382;28;20017;-74
2021/03/26 03:21:32;;;;;;;6.40;3.90;;;4.50;79.70;;;;;;5072429;28;20013;-74
2021/03/26 03:24:22;;;;;;;7.20;3.95;;;4.60;79.70;;;;;;5072511;28;20024;-74
2021/03/26 03:27:03;;;;;;;7.47;4.43;;;4.90;78.80;;;;;;5072422;28;20021;-74
2021/03/26 03:30:00;;;;;;;8.98;4.03;;;5.00;77.60;;;;;;5037743;28;20036;-74
2021/03/26 03:32:42;;;;;;;7.63;3.28;;;5.00;77.40;;;;;;5044343;28;20503;-74
2021/03/26 03:35:19;;;;;;;7.28;3.65;;;4.70;78.20;;;;;;5072391;28;20491;-74
2021/03/26 03:37:56;;;;;;;5.05;3.13;;;4.70;78.40;;;;;;5072205;28;20113;-74
2021/03/26 03:40:31;;;;;;;8.48;4.28;;;4.90;78.30;;;;;;5072183;28;20021;-74
2021/03/26 03:43:10;;;;;;;12.13;4.68;;;5.00;78.10;;;;;;5054231;28;20020;-74
2021/03/26 03:45:41;;;;;;;6.15;3.75;;;5.00;77.70;;;;;;5037667;28;20029;-74
2021/03/26 03:48:33;;;;;;;12.70;4.70;;;4.90;78.10;;;;;;5072055;28;20028;-74
2021/03/26 03:51:06;;;;;;;10.68;3.72;;;4.70;78.40;;;;;;5023792;28;20029;-74
2021/03/26 03:53:43;;;;;;;7.22;4.10;;;4.80;78.30;;;;;;5071951;28;20032;-74
2021/03/26 03:56:34;;;;;;;8.77;4.15;;;4.90;78.10;;;;;;5054220;28;20024;-74
2021/03/26 03:59:38;;;;;;;6.97;4.38;;;5.00;77.30;;;;;;5053934;28;20016;-74
2021/03/26 04:02:25;;;;;;;13.30;4.75;;;5.00;77.30;;;;;;5072079;28;20093;-74
2021/03/26 04:05:08;;;;;;;9.48;4.18;;;5.00;77.10;;;;;;5071915;28;20012;-74
2021/03/26 04:07:41;;;;;;;10.38;3.70;;;5.00;78.20;;;;;;5071926;28;20024;-74
2021/03/26 04:10:13;;;;;;;11.38;4.95;;;4.90;77.80;;;;;;5071819;28;20055;-74
2021/03/26 04:12:41;;;;;;;5.55;3.53;;;4.90;78.40;;;;;;5071765;28;20066;-74
2021/03/26 04:15:10;;;;;;;8.27;4.13;;;4.90;78.00;;;;;;5053736;28;20021;-74
2021/03/26 04:17:39;;;;;;;5.80;3.67;;;4.80;78.10;;;;;;5071629;28;20028;-74
2021/03/26 04:20:13;;;;;;;11.65;4.15;;;4.80;78.60;;;;;;5071640;28;20471;-74
2021/03/26 04:22:44;;;;;;;10.27;5.55;;;4.80;78.50;;;;;;5054218;28;20496;-74
2021/03/26 04:25:24;;;;;;;11.73;3.90;;;4.60;78.30;;;;;;5075901;28;20043;-74
2021/03/26 04:28:11;;;;;;;6.65;4.57;;;4.80;79.40;;;;;;5058036;28;20017;-74
2021/03/26 04:30:41;;;;;;;5.38;3.70;;;4.80;78.80;;;;;;5057880;28;20021;-74
2021/03/26 04:33:07;;;;;;;9.43;3.92;;;4.60;79.30;;;;;;5075716;28;20103;-74
2021/03/26 04:35:33;;;;;;;5.57;3.95;;;4.40;80.00;;;;;;5075617;28;20024;-74
2021/03/26 04:38:17;;;;;;;7.88;3.83;;;4.30;80.30;;;;;;5075665;28;20380;-74
2021/03/26 04:40:48;;;;;;;15.43;5.10;;;4.50;80.30;;;;;;5075671;28;20112;-74
2021/03/26 04:43:29;;;;;;;9.15;4.50;;;4.50;80.10;;;;;;5075595;28;20081;-74
2021/03/26 04:45:58;;;;;;;14.60;4.90;;;4.50;80.00;;;;;;5075451;28;20059;-74
2021/03/26 04:48:26;;;;;;;12.80;4.57;;;4.70;79.70;;;;;;5075287;28;20387;-74
2021/03/26 04:51:08;;;;;;;12.73;4.70;;;4.70;79.70;;;;;;5075374;28;20480;-74
2021/03/26 04:53:39;;;;;;;;;;;4.80;79.10;;;;;;5057948;28;20017;-74
2021/03/26 04:56:12;;;;;;;12.13;4.90;;;4.80;79.00;;;;;;5075311;28;19904;-74
2021/03/26 04:58:40;;;;;;;13.32;4.57;;;4.80;78.50;;;;;;5075153;28;20031;-74
2021/03/26 05:01:13;;;;;;;15.35;4.85;;;4.70;78.50;;;;;;5075258;28;20483;-74
2021/03/26 05:03:43;;;;;;;13.68;4.30;;;4.60;79.30;;;;;;5040537;28;20102;-74
2021/03/26 05:06:22;;;;;;;9.90;4.47;;;4.50;79.90;;;;;;5075115;28;20062;-74
2021/03/26 05:08:54;;;;;;;10.32;4.32;;;4.80;79.50;;;;;;5074820;28;20036;-74
2021/03/26 05:11:23;;;;;;;9.85;4.05;;;4.70;78.50;;;;;;5057096;28;20040;-74
2021/03/26 05:13:52;;;;;;;9.73;4.13;;;5.00;79.10;;;;;;5074957;28;20021;-75
2021/03/26 05:16:27;;;;;;;8.55;4.28;;;5.20;77.60;;;;;;5074826;28;20036;-75
2021/03/26 05:19:03;;;;;;;4.97;3.50;;;5.20;76.20;;;;;;5074600;28;20027;-74
2021/03/26 05:21:49;;;;;;;7.63;3.95;;;5.10;76.60;;;;;;5074757;28;20024;-74
2021/03/26 05:24:34;;;;;;;7.85;3.50;;;5.20;77.00;;;;;;5074824;28;20103;-74
2021/03/26 05:27:02;;;;;;;9.27;4.15;;;5.40;76.10;;;;;;5074679;28;20021;-74
2021/03/26 05:29:27;;;;;;;7.07;3.92;;;5.60;75.60;;;;;;5056644;28;20111;-75
2021/03/26 05:32:25;;;;;;;8.20;4.22;;;5.60;75.00;;;;;;5056741;28;20489;-74
2021/03/26 05:35:01;;;;;;;6.38;3.90;;;5.20;75.80;;;;;;5073234;28;20033;-74
2021/03/26 05:37:46;;;;;;;19.45;3.92;;;5.10;76.60;;;;;;5074490;28;20020;-74
2021/03/26 05:40:46;;;;;;;6.40;3.17;;;5.10;77.30;;;;;;5056507;28;20490;-74
2021/03/26 05:43:21;;;;;;;8.13;3.95;;;5.30;76.60;;;;;;5074468;28;20032;-74
2021/03/26 05:46:02;;;;;;;11.25;4.28;;;5.70;76.10;;;;;;5074249;28;20476;-74
2021/03/26 05:48:37;;;;;;;11.52;4.25;;;5.90;75.00;;;;;;5056211;28;20021;-74
2021/03/26 05:51:16;;;;;;;7.50;3.53;;;5.90;74.90;;;;;;5071315;28;20086;-74
2021/03/26 05:53:55;;;;;;;7.78;3.75;;;5.90;74.30;;;;;;5071358;28;20055;-74
2021/03/26 05:56:55;;;;;;;10.48;4.25;;;5.90;74.00;;;;;;5068486;28;20458;-74
2021/03/26 05:59:57;;;;;;;8.02;4.07;;;5.80;74.40;;;;;;5055129;28;20024;-74
2021/03/26 06:03:01;;;;;;;11.73;4.30;;;5.80;74.50;;;;;;5048724;28;20040;-74
2021/03/26 06:05:45;;;;;;;13.68;4.40;;;5.70;75.10;;;;;;5001760;28;20141;-74
2021/03/26 06:08:38;;;;;;;8.15;3.58;;;5.70;75.40;;;;;;5072509;28;20016;-74
2021/03/26 06:11:35;;;;;;;8.82;4.18;;;5.90;75.00;;;;;;5072931;28;20115;-74
2021/03/26 06:14:30;;;;;;;8.80;4.03;;;5.90;74.90;;;;;;5072397;28;20111;-75
2021/03/26 06:17:19;;;;;;;21.42;5.45;;;5.90;75.00;;;;;;5034676;28;20045;-75
2021/03/26 06:20:06;;;;;;;9.05;4.10;;;6.00;74.90;;;;;;5037598;28;20032;-75
2021/03/26 06:23:22;;;;;;;7.65;3.85;;;6.00;74.60;;;;;;5054620;28;20025;-75
2021/03/26 06:25:58;;;;;;;9.55;4.72;;;5.90;74.60;;;;;;4990684;28;20057;-75
2021/03/26 06:28:41;;;;;;;14.38;4.70;;;5.60;75.80;;;;;;4974668;28;20348;-75
2021/03/26 06:31:31;;;;;;;10.25;3.75;;;5.50;76.80;;;;;;5050258;28;20119;-74
2021/03/26 06:34:18;;;;;;;14.90;4.07;;;5.40;77.60;;;;;;5052805;28;20055;-75
2021/03/26 06:36:58;;;;;;;12.10;4.45;;;5.60;77.40;;;;;;5069474;28;20055;-76
2021/03/26 06:40:02;;;;;;;18.65;4.43;;;5.80;76.90;;;;;;5054674;28;20098;-74
2021/03/26 06:42:45;;;;;;;17.88;4.50;;;6.10;76.60;;;;;;5071951;28;20424;-74
2021/03/26 06:46:01;;;;;;;12.77;4.78;;;6.30;75.70;;;;;;5072187;28;20078;-74
2021/03/26 06:48:50;;;;;;;16.50;4.60;;;6.60;75.00;;;;;;4990040;28;20620;-74
2021/03/26 06:51:22;;;;;;;18.45;4.90;;;6.80;74.20;;;;;;5064512;28;20111;-74
2021/03/26 06:53:59;;;;;;;6.05;3.40;;;7.10;73.70;;;;;;5071501;28;20081;-74
2021/03/26 06:56:43;;;;;;;12.50;4.03;;;7.20;72.40;;;;;;5071815;28;20024;-75
2021/03/26 06:59:33;;;;;;;8.40;4.25;;;7.40;72.20;;;;;;5071267;28;20033;-74
2021/03/26 07:02:17;;;;;;;9.85;4.40;;;7.50;71.40;;;;;;5052380;28;20102;-74
2021/03/26 07:05:07;;;;;;;11.50;4.20;;;7.50;71.50;;;;;;5071345;28;20032;-74
2021/03/26 07:07:38;;;;;;;15.18;3.72;;;7.50;71.20;;;;;;5072044;28;20028;-75
2021/03/26 07:10:23;;;;;;;8.90;4.03;;;7.50;71.10;;;;;;5052853;28;20040;-74
2021/03/26 07:13:00;;;;;;;10.13;4.47;;;7.60;71.60;;;;;;5067767;28;20029;-74
2021/03/26 07:15:49;;;;;;;9.27;3.83;;;7.70;71.00;;;;;;5071172;28;20028;-75
2021/03/26 07:18:35;;;;;;;14.75;4.45;;;7.90;70.20;;;;;;5069151;28;20024;-74
2021/03/26 07:21:29;;;;;;;13.45;4.78;;;8.00;70.10;;;;;;5071300;28;20032;-74
2021/03/26 07:24:16;;;;;;;17.08;4.32;;;8.10;70.00;;;;;;5067687;28;20020;-75
2021/03/26 07:27:12;;;;;;;20.30;4.95;;;8.30;69.70;;;;;;5070814;28;20032;-75
2021/03/26 07:30:11;;;;;;;16.90;4.65;;;8.30;70.90;;;;;;5053026;28;20036;-74
2021/03/26 07:32:37;;;;;;;8.57;4.07;;;8.50;70.90;;;;;;5066501;28;20396;-74
2021/03/26 07:35:26;;;;;;;10.25;3.72;;;8.60;71.40;;;;;;5053010;28;20024;-74
2021/03/26 07:37:54;;;;;;;7.93;4.13;;;8.70;71.70;;;;;;5024033;28;20036;-74
2021/03/26 07:40:37;;;;;;;8.27;4.13;;;8.80;72.00;;;;;;5071223;28;20020;-74
2021/03/26 07:43:24;;;;;;;12.63;4.53;;;8.90;71.90;;;;;;5053146;28;20429;-74
2021/03/26 07:46:21;;;;;;;9.63;4.40;;;9.00;71.60;;;;;;5052118;28;20491;-74
2021/03/26 07:48:59;;;;;;;9.82;4.70;;;9.00;71.60;;;;;;5070749;28;20028;-74
2021/03/26 07:51:44;;;;;;;6.93;3.85;;;9.00;71.70;;;;;;5067859;28;20042;-74
2021/03/26 07:54:47;;;;;;;16.35;4.30;;;9.10;71.80;;;;;;5053090;28;20024;-74
2021/03/26 07:57:44;;;;;;;10.48;5.03;;;9.20;71.80;;;;;;5048887;28;20020;-74
2021/03/26 08:00:33;;;;;;;17.10;7.47;;;9.30;72.00;;;;;;5066304;28;20017;-74
2021/03/26 08:03:24;;;;;;;17.40;8.35;;;9.50;70.60;;;;;;5066683;28;20025;-74
2021/03/26 08:06:15;;;;;;;19.43;8.37;;;9.70;69.30;;;;;;5071135;28;20027;-73
2021/03/26 08:09:00;;;;;;;34.25;9.60;;;9.90;68.30;;;;;;5071638;28;20471;-73
2021/03/26 08:12:20;;;;;;;20.20;9.38;;;10.00;68.10;;;;;;5071343;28;20365;-73
2021/03/26 08:15:06;;;;;;;26.25;12.07;;;10.10;67.20;;;;;;5009276;28;20072;-73
2021/03/26 08:17:50;;;;;;;29.40;11.38;;;10.30;66.90;;;;;;5066704;28;20044;-74
2021/03/26 08:20:21;;;;;;;27.27;13.68;;;10.30;66.80;;;;;;5053564;28;20455;-74
2021/03/26 08:23:08;;;;;;;23.90;12.75;;;10.50;67.00;;;;;;5071257;28;20028;-74
2021/03/26 08:25:59;;;;;;;28.95;12.85;;;10.50;67.10;;;;;;5071409;28;20396;-73
2021/03/26 08:28:39;;;;;;;34.60;15.60;;;10.60;67.40;;;;;;5071044;28;20078;-74
2021/03/26 08:31:32;;;;;;;29.80;12.98;;;10.70;67.60;;;;;;5053196;28;20112;-74
2021/03/26 08:34:33;;;;;;;30.00;13.90;;;10.80;66.80;;;;;;5071098;28;20138;-74
2021/03/26 08:37:23;;;;;;;34.95;14.25;;;10.80;66.60;;;;;;5071558;28;20052;-73
2021/03/26 08:39:53;;;;;;;30.13;13.15;;;10.90;66.90;;;;;;5053074;28;20058;-72
2021/03/26 08:42:24;;;;;;;27.73;12.18;;;11.10;66.60;;;;;;5071118;28;20414;-72
2021/03/26 08:45:03;;;;;;;26.95;11.75;;;11.20;66.70;;;;;;5071886;28;20024;-72
2021/03/26 08:47:37;;;;;;;25.90;13.30;;;11.40;66.20;;;;;;5037081;28;20025;-72
2021/03/26 08:50:11;;;;;;;28.15;11.77;;;11.50;64.90;;;;;;5053811;28;20056;-72
2021/03/26 08:53:11;;;;;;;24.98;11.55;;;11.60;65.80;;;;;;5071416;28;20392;-72
2021/03/26 08:55:40;;;;;;;21.60;11.30;;;11.90;64.70;;;;;;5071653;28;20380;-72
2021/03/26 08:58:39;;;;;;;22.33;11.60;;;12.20;63.70;;;;;;5071335;28;20553;-72
2021/03/26 09:01:17;;;;;;;25.30;10.93;;;12.40;61.70;;;;;;5053603;28;20021;-72
2021/03/26 09:03:58;;;;;;;31.15;11.65;;;12.60;60.60;;;;;;5071389;28;20032;-72
2021/03/26 09:06:42;;;;;;;25.42;10.82;;;13.00;59.30;;;;;;5053718;28;20029;-72
2021/03/26 09:09:20;;;;;;;26.63;11.27;;;13.40;57.70;;;;;;5072385;28;20025;-72
2021/03/26 09:12:23;;;;;;;25.48;11.35;;;13.70;57.00;;;;;;5057110;28;20035;-72
2021/03/26 09:14:58;;;;;;;19.75;9.57;;;14.00;56.60;;;;;;5056631;28;20033;-73
2021/03/26 09:17:34;;;;;;;21.73;9.85;;;14.20;54.50;;;;;;5074447;28;20028;-73
2021/03/26 09:20:22;;;;;;;29.98;11.20;;;14.50;54.90;;;;;;5074301;28;20035;-73
2021/03/26 09:23:18;;;;;;;28.45;11.63;;;14.70;54.30;;;;;;5074621;28;20488;-75
2021/03/26 09:25:48;;;;;;;35.78;11.80;;;14.70;54.50;;;;;;5074377;28;20020;-74
2021/03/26 09:28:25;;;;;;;23.98;10.63;;;15.00;54.40;;;;;;5074170;28;20021;-74
2021/03/26 09:31:20;;;;;;;26.10;11.30;;;15.30;52.70;;;;;;5074133;28;20093;-73
2021/03/26 09:34:03;;;;;;;21.85;10.35;;;15.80;51.80;;;;;;5074147;28;20506;-73
2021/03/26 09:36:35;;;;;;;24.30;10.93;;;16.10;50.00;;;;;;5056245;28;20048;-73
2021/03/26 09:39:20;;;;;;;22.90;10.02;;;16.40;49.60;;;;;;5074012;28;20103;-73
2021/03/26 09:42:04;;;;;;;18.45;10.68;;;16.80;48.30;;;;;;5039025;28;20031;-72
2021/03/26 09:44:43;;;;;;;19.08;10.18;;;17.00;48.00;;;;;;5074100;28;20043;-72
2021/03/26 09:47:24;;;;;;;21.58;11.15;;;17.30;48.50;;;;;;5074102;28;20020;-72
2021/03/26 09:50:04;;;;;;;21.75;11.57;;;17.50;45.90;;;;;;5074060;28;20429;-72
2021/03/26 09:52:43;;;;;;;25.35;11.88;;;17.90;47.00;;;;;;5056034;28;20024;-74
2021/03/26 09:55:32;;;;;;;18.50;10.57;;;17.80;45.90;;;;;;5073203;28;20122;-74
2021/03/26 09:58:17;;;;;;;21.05;9.98;;;17.90;45.40;;;;;;5073421;28;20488;-73
2021/03/26 10:01:10;;;;;;;25.40;11.68;;;18.20;45.20;;;;;;5073546;28;20025;-73
2021/03/26 10:03:53;;;;;;;26.30;11.65;;;18.70;45.70;;;;;;5043491;28;20488;-73
2021/03/26 10:07:25;;;;;;;28.15;12.65;;;19.00;44.20;;;;;;5038821;28;20032;-73
2021/03/26 10:13:09;;;;;;;21.55;11.48;;;19.70;43.40;;;;;;5055673;28;20139;-74
2021/03/26 10:15:41;;;;;;;20.73;12.20;;;19.80;43.30;;;;;;5072641;28;20029;-72
2021/03/26 10:18:21;;;;;;;25.25;10.60;;;19.90;43.00;;;;;;5055625;28;20020;-72
2021/03/26 10:21:04;;;;;;;22.40;11.18;;;19.70;42.50;;;;;;5055018;28;20414;-73
2021/03/26 10:23:49;;;;;;;24.23;10.88;;;19.80;42.70;;;;;;5073564;28;20025;-73
2021/03/26 10:26:34;;;;;;;17.80;9.85;;;20.30;40.70;;;;;;5073175;28;20024;-72
2021/03/26 10:29:23;;;;;;;26.17;10.88;;;20.00;42.00;;;;;;5161902;22;20071;-75
2021/03/26 10:31:51;;;;;;;21.10;10.35;;;20.50;41.00;;;;;;5075768;28;20027;-75
2021/03/26 10:34:30;;;;;;;20.48;9.90;;;20.30;40.40;;;;;;5093562;28;20111;-75
2021/03/26 10:37:41;;;;;;;21.10;9.38;;;20.40;40.40;;;;;;5093647;28;20507;-74
2021/03/26 10:40:35;;;;;;;17.25;7.15;;;19.90;40.10;;;;;;5089500;28;20115;-75
2021/03/26 10:43:29;;;;;;;13.82;7.35;;;20.50;38.30;;;;;;5093597;28;20020;-77
2021/03/26 10:46:05;;;;;;;11.52;6.72;;;20.80;36.30;;;;;;5093506;28;20034;-75
2021/03/26 10:48:54;;;;;;;9.77;5.40;;;20.90;36.70;;;;;;5093373;28;20051;-75
2021/03/26 10:51:41;;;;;;;11.65;5.70;;;21.00;35.80;;;;;;5064423;28;20568;-75
2021/03/26 10:54:27;;;;;;;14.30;6.15;;;21.20;35.20;;;;;;5093127;28;20483;-75
2021/03/26 10:57:07;;;;;;;10.73;6.00;;;21.50;35.60;;;;;;5093016;28;20023;-74
2021/03/26 10:59:51;;;;;;;13.32;5.93;;;20.70;35.90;;;;;;5092801;28;20020;-75
2021/03/26 11:02:24;;;;;;;11.75;6.60;;;20.90;35.30;;;;;;5092926;28;20024;-75
2021/03/26 11:05:14;;;;;;;12.10;5.88;;;21.20;34.00;;;;;;5093052;28;20020;-74
2021/03/26 11:08:08;;;;;;;9.00;6.07;;;21.30;35.50;;;;;;5092998;28;20036;-73
2021/03/26 11:10:41;;;;;;;16.10;6.20;;;21.10;34.00;;;;;;5092692;28;20028;-73
2021/03/26 11:13:32;;;;;;;11.25;5.63;;;21.20;34.20;;;;;;5091240;28;20032;-73
2021/03/26 11:16:24;;;;;;;8.83;5.80;;;21.00;35.10;;;;;;5072878;28;20025;-73
2021/03/26 11:19:08;;;;;;;10.05;5.85;;;20.70;35.40;;;;;;5072353;28;20475;-73
2021/03/26 11:21:40;;;;;;;9.23;5.38;;;20.70;35.50;;;;;;5072507;28;20040;-73
2021/03/26 11:24:07;;;;;;;10.45;5.68;;;20.80;35.70;;;;;;5054140;28;20025;-73
2021/03/26 11:27:03;;;;;;;12.40;6.78;;;20.60;36.20;;;;;;5072333;28;20060;-73
2021/03/26 11:29:37;;;;;;;11.45;6.70;;;20.90;35.70;;;;;;5072114;28;20038;-73
2021/03/26 11:32:15;;;;;;;12.73;7.10;;;21.10;35.50;;;;;;5072148;28;20078;-73
2021/03/26 11:35:06;;;;;;;14.75;7.25;;;21.30;35.10;;;;;;5071977;28;20040;-73
2021/03/26 11:37:57;;;;;;;10.88;6.47;;;21.60;34.20;;;;;;5071859;28;20479;-73
2021/03/26 11:40:38;;;;;;;10.75;7.03;;;21.40;34.50;;;;;;5072292;28;20024;-73
2021/03/26 11:43:46;;;;;;;12.98;6.72;;;21.00;34.40;;;;;;5072131;28;20043;-73
2021/03/26 11:46:17;;;;;;;14.35;6.38;;;21.00;34.60;;;;;;5040992;28;20040;-73
2021/03/26 11:48:53;;;;;;;15.83;6.83;;;20.60;35.20;;;;;;5071897;28;20020;-73
2021/03/26 11:51:37;;;;;;;12.23;5.97;;;20.90;35.30;;;;;;5054175;28;20480;-72
2021/03/26 11:54:26;;;;;;;17.55;6.35;;;21.10;35.40;;;;;;5053911;28;20025;-73
2021/03/26 11:57:15;;;;;;;11.65;6.13;;;21.10;35.10;;;;;;5071573;28;20032;-73
2021/03/26 11:59:54;;;;;;;15.43;6.43;;;21.40;35.40;;;;;;5071900;28;20488;-73
2021/03/26 12:02:25;;;;;;;10.05;5.88;;;21.30;35.30;;;;;;5071788;28;20025;-73
2021/03/26 12:04:54;;;;;;;8.98;5.75;;;21.50;33.80;;;;;;5071774;28;20368;-72
2021/03/26 12:07:34;;;;;;;16.05;5.95;;;21.50;34.90;;;;;;5071476;28;20036;-73
2021/03/26 12:10:11;;;;;;;16.83;6.95;;;21.90;34.50;;;;;;5071851;28;20032;-73
2021/03/26 12:12:48;;;;;;;15.68;6.00;;;21.90;33.50;;;;;;5053716;28;20391;-73
2021/03/26 12:15:23;;;;;;;13.57;6.70;;;22.00;33.60;;;;;;5071825;28;20379;-73
2021/03/26 12:18:07;;;;;;;10.23;5.55;;;22.10;33.50;;;;;;5071220;28;20020;-73
2021/03/26 12:20:37;;;;;;;10.35;5.68;;;22.10;34.20;;;;;;5071826;28;20033;-73
2021/03/26 12:23:12;;;;;;;13.15;6.32;;;21.70;33.00;;;;;;5071663;28;20021;-75
2021/03/26 12:25:52;;;;;;;17.52;7.00;;;21.50;34.30;;;;;;5053843;28;20024;-74
2021/03/26 12:28:28;;;;;;;58.05;32.13;;;21.70;34.50;;;;;;5071059;28;20036;-73
2021/03/26 12:31:12;;;;;;;27.33;15.50;;;21.60;35.30;;;;;;5071551;28;20353;-72
2021/03/26 12:33:49;;;;;;;15.88;6.55;;;21.30;35.70;;;;;;5070276;28;20341;-72
2021/03/26 12:36:29;;;;;;;19.50;8.63;;;21.00;34.90;;;;;;5071399;28;20024;-73
2021/03/26 12:38:59;;;;;;;12.32;6.85;;;20.70;36.30;;;;;;5071422;28;20028;-73
2021/03/26 12:41:40;;;;;;;75.18;42.85;;;20.40;35.90;;;;;;5071511;28;20029;-74
2021/03/26 12:44:26;;;;;;;12.35;5.78;;;20.20;39.80;;;;;;5072694;28;20025;-73
2021/03/26 12:47:10;;;;;;;18.67;7.00;;;19.80;36.30;;;;;;5075340;28;20028;-72
2021/03/26 12:49:51;;;;;;;36.45;8.55;;;19.60;37.60;;;;;;5075092;28;20021;-72
2021/03/26 12:52:54;;;;;;;11.70;6.75;;;19.60;37.80;;;;;;5073886;28;20028;-72
2021/03/26 12:55:25;;;;;;;46.53;14.13;;;19.50;37.20;;;;;;5074779;28;20033;-73
2021/03/26 12:58:18;;;;;;;10.93;5.63;;;19.40;38.20;;;;;;5075344;28;20021;-73
2021/03/26 13:00:46;;;;;;;9.90;5.43;;;19.10;36.80;;;;;;5075152;28;20029;-74
2021/03/26 13:03:14;;;;;;;13.85;5.55;;;19.30;37.70;;;;;;5074948;28;20031;-74
2021/03/26 13:05:45;;;;;;;11.73;5.68;;;19.60;36.60;;;;;;5073644;28;20054;-74
2021/03/26 13:08:22;;;;;;;11.25;5.60;;;19.20;36.50;;;;;;5074880;28;20048;-74
2021/03/26 13:11:15;;;;;;;10.55;5.35;;;19.30;36.40;;;;;;5074833;28;20392;-74
2021/03/26 13:13:47;;;;;;;12.07;6.10;;;19.30;36.40;;;;;;5074661;28;20036;-74
2021/03/26 13:16:32;;;;;;;10.20;5.57;;;19.20;36.90;;;;;;5073611;28;20017;-75
2021/03/26 13:19:01;;;;;;;10.05;5.22;;;19.30;38.30;;;;;;5057169;28;20384;-74
2021/03/26 13:21:38;;;;;;;11.15;5.43;;;19.10;37.60;;;;;;5074531;28;20052;-75
2021/03/26 13:24:29;;;;;;;11.85;5.22;;;19.30;36.90;;;;;;5040057;28;20029;-75
2021/03/26 13:27:23;;;;;;;10.43;5.20;;;19.40;35.70;;;;;;5074405;28;20033;-74
2021/03/26 13:30:10;;;;;;;8.05;4.53;;;19.40;36.40;;;;;;5074486;28;20033;-75
2021/03/26 13:32:45;;;;;;;11.88;5.00;;;19.60;34.90;;;;;;5074416;28;20055;-75
2021/03/26 13:35:21;;;;;;;9.32;5.40;;;19.50;35.20;;;;;;5074284;28;20434;-75
2021/03/26 13:37:52;;;;;;;38.30;7.38;;;19.40;35.80;;;;;;5074590;28;20040;-76
2021/03/26 13:40:21;;;;;;;12.55;5.32;;;19.30;36.10;;;;;;5074365;28;20016;-76
2021/03/26 13:42:52;;;;;;;18.02;7.35;;;19.20;36.40;;;;;;5074229;28;20025;-76
2021/03/26 13:45:24;;;;;;;12.80;5.63;;;19.10;36.80;;;;;;5074608;28;20242;-76
2021/03/26 13:47:55;;;;;;;;;;;18.90;36.60;;;;;;5074756;28;20028;-76
2021/03/26 13:50:28;;;;;;;13.75;6.70;;;18.80;36.90;;;;;;5074172;28;19904;-76
2021/03/26 13:52:57;;;;;;;20.83;10.50;;;18.80;36.80;;;;;;5039627;28;20033;-76